createdAt,value
2019-04-01T00:01:34.906Z,101142.39
2019-04-01T00:04:36.969Z,101143.53
2019-04-01T00:07:38.868Z,101139.27
2019-04-01T00:10:40.782Z,101149.91
2019-04-01T00:13:44.506Z,101147.16
2019-04-01T00:16:46.419Z,101154.89
2019-04-01T00:19:48.347Z,101162.44
2019-04-01T00:22:50.445Z,101165.87
2019-04-01T00:25:52.423Z,101162.39
2019-04-01T00:28:54.333Z,101163.45
2019-04-01T00:31:56.224Z,101162.69
2019-04-01T00:34:58.189Z,101160.27
2019-04-01T00:38:00.120Z,101157.96
2019-04-01T00:41:02.127Z,101167.35
2019-04-01T00:44:08.629Z,101166.09
2019-04-01T00:47:10.588Z,101166.16
2019-04-01T00:50:12.466Z,101169.29
2019-04-01T00:53:17.795Z,101175.24
2019-04-01T00:56:18.139Z,101171.05
2019-04-01T00:59:20.070Z,101169.39
2019-04-01T01:02:21.927Z,101171.39
2019-04-01T01:05:23.967Z,101173.05
2019-04-01T01:08:25.930Z,101178.18
2019-04-01T01:11:28.215Z,101179.13
2019-04-01T01:14:30.121Z,101183.81
2019-04-01T01:17:32.023Z,101187.17
2019-04-01T01:20:34.030Z,101181.44
2019-04-01T01:23:35.867Z,101188.23
2019-04-01T01:26:38.762Z,101188.41
2019-04-01T01:29:40.649Z,101191.34
2019-04-01T01:32:42.512Z,101189.04
2019-04-01T01:35:44.423Z,101186.91
2019-04-01T01:38:46.307Z,101193.58
2019-04-01T01:41:48.187Z,101197.94
2019-04-01T01:44:50.035Z,101194.80
2019-04-01T01:47:51.935Z,101200.41
2019-04-01T01:50:54.043Z,101200.81
2019-04-01T01:53:55.949Z,101201.34
2019-04-01T01:56:57.822Z,101201.98
2019-04-01T01:59:59.790Z,101201.24
2019-04-01T02:03:01.652Z,101208.37
2019-04-01T02:06:03.620Z,101206.48
2019-04-01T02:09:06.822Z,101208.77
2019-04-01T02:12:09.218Z,101212.38
2019-04-01T02:15:11.124Z,101209.33
2019-04-01T02:18:13.032Z,101223.23
2019-04-01T02:21:14.932Z,101219.53
2019-04-01T02:24:16.836Z,101230.83
2019-04-01T02:27:18.708Z,101226.59
2019-04-01T02:30:20.562Z,101229.45
2019-04-01T02:33:22.407Z,101231.59
2019-04-01T02:36:24.304Z,101227.66
2019-04-01T02:39:26.309Z,101230.14
2019-04-01T02:42:28.222Z,101233.61
2019-04-01T02:45:30.148Z,101242.52
2019-04-01T02:48:32.076Z,101237.88
2019-04-01T02:51:34.038Z,101237.82
2019-04-01T02:54:35.918Z,101238.59
2019-04-01T02:57:37.850Z,101241.03
2019-04-01T03:00:39.715Z,101244.63
2019-04-01T03:03:41.628Z,101239.66
2019-04-01T03:06:43.539Z,101243.14
2019-04-01T03:09:45.542Z,101249.95
2019-04-01T03:12:47.725Z,101250.72
2019-04-01T03:15:49.773Z,101251.45
2019-04-01T03:18:51.671Z,101249.09
2019-04-01T03:21:53.547Z,101249.44
2019-04-01T03:24:55.399Z,101257.73
2019-04-01T03:27:57.297Z,101254.75
2019-04-01T03:30:59.144Z,101257.00
2019-04-01T03:34:01.075Z,101253.70
2019-04-01T03:37:03.001Z,101255.95
2019-04-01T03:40:05.485Z,101249.43
2019-04-01T03:43:07.492Z,101249.66
2019-04-01T03:46:09.402Z,101252.55
2019-04-01T03:49:11.276Z,101251.57
2019-04-01T03:52:13.229Z,101254.72
2019-04-01T03:55:16.084Z,101265.25
2019-04-01T03:58:17.991Z,101252.47
2019-04-01T04:01:19.871Z,101251.16
2019-04-01T04:04:21.812Z,101256.30
2019-04-01T04:07:23.776Z,101260.08
2019-04-01T04:10:25.820Z,101255.72
2019-04-01T04:13:27.857Z,101257.77
2019-04-01T04:16:29.816Z,101258.59
2019-04-01T04:19:31.660Z,101259.12
2019-04-01T04:22:33.627Z,101260.84
2019-04-01T04:25:35.509Z,101256.64
2019-04-01T04:28:37.499Z,101263.55
2019-04-01T04:31:40.390Z,101262.19
2019-04-01T04:34:42.353Z,101257.82
2019-04-01T04:37:44.396Z,101268.13
2019-04-01T04:40:46.354Z,101275.34
2019-04-01T04:43:48.341Z,101276.09
2019-04-01T04:46:50.264Z,101279.61
2019-04-01T04:49:52.186Z,101278.34
2019-04-01T04:52:54.180Z,101277.80
2019-04-01T04:55:56.104Z,101289.17
2019-04-01T04:58:59.378Z,101290.27
2019-04-01T05:02:01.465Z,101288.96
2019-04-01T05:05:05.441Z,101282.83
2019-04-01T05:08:07.441Z,101289.27
2019-04-01T05:11:09.425Z,101288.23
2019-04-01T05:14:11.660Z,101282.65
2019-04-01T05:17:13.679Z,101289.41
2019-04-01T05:20:16.624Z,101285.24
2019-04-01T05:23:20.463Z,101286.77
2019-04-01T05:26:24.153Z,101297.31
2019-04-01T05:29:29.562Z,101288.08
2019-04-01T05:32:33.293Z,101296.30
2019-04-01T05:35:35.472Z,101297.36
2019-04-01T05:38:37.515Z,101306.95
2019-04-01T05:41:39.514Z,101307.44
2019-04-01T05:44:41.557Z,101301.68
2019-04-01T05:47:45.340Z,101306.88
2019-04-01T05:50:47.305Z,101303.08
2019-04-01T05:53:49.310Z,101307.85
2019-04-01T05:56:51.438Z,101307.73
2019-04-01T05:59:53.443Z,101309.86
2019-04-01T06:02:55.384Z,101316.56
2019-04-01T06:05:58.189Z,101303.43
2019-04-01T06:09:00.131Z,101308.64
2019-04-01T06:12:02.249Z,101310.02
2019-04-01T06:15:05.338Z,101310.94
2019-04-01T06:18:07.306Z,101316.44
2019-04-01T06:21:10.129Z,101316.77
2019-04-01T06:24:12.590Z,101309.33
2019-04-01T06:27:15.005Z,101314.07
2019-04-01T06:30:17.785Z,101323.86
2019-04-01T06:33:19.746Z,101317.53
2019-04-01T06:36:21.842Z,101330.94
2019-04-01T06:39:23.798Z,101327.46
2019-04-01T06:42:25.787Z,101328.95
2019-04-01T06:45:27.839Z,101330.22
2019-04-01T06:48:30.578Z,101329.33
2019-04-01T06:51:32.884Z,101336.50
2019-04-01T06:54:34.925Z,101323.47
2019-04-01T06:57:36.789Z,101335.97
2019-04-01T07:00:38.842Z,101337.85
2019-04-01T07:03:40.856Z,101352.27
2019-04-01T07:06:43.654Z,101337.38
2019-04-01T07:09:45.590Z,101341.83
2019-04-01T07:12:49.499Z,101339.62
2019-04-01T07:15:51.475Z,101338.59
2019-04-01T07:18:53.468Z,101339.20
2019-04-01T07:21:55.590Z,101343.56
2019-04-01T07:24:57.544Z,101338.88
2019-04-01T07:27:59.511Z,101338.36
2019-04-01T07:31:01.716Z,101345.53
2019-04-01T07:34:03.734Z,101344.75
2019-04-01T07:37:06.005Z,101350.00
2019-04-01T07:40:08.449Z,101357.95
2019-04-01T07:43:10.472Z,101360.06
2019-04-01T07:46:12.466Z,101359.59
2019-04-01T07:49:14.938Z,101364.02
2019-04-01T07:52:17.002Z,101349.63
2019-04-01T07:55:18.915Z,101353.53
2019-04-01T07:58:20.886Z,101377.44
2019-04-01T08:01:22.825Z,101358.81
2019-04-01T08:04:24.764Z,101368.50
2019-04-01T08:07:26.800Z,101360.27
2019-04-01T08:10:28.768Z,101363.95
2019-04-01T08:13:30.756Z,101361.41
2019-04-01T08:16:32.792Z,101371.91
2019-04-01T08:19:34.691Z,101364.00
2019-04-01T08:22:36.857Z,101380.16
2019-04-01T08:25:38.750Z,101374.38
2019-04-01T08:28:41.885Z,101374.75
2019-04-01T08:31:43.796Z,101374.61
2019-04-01T08:34:46.979Z,101368.97
2019-04-01T08:37:49.245Z,101369.48
2019-04-01T08:40:51.234Z,101369.47
2019-04-01T08:43:53.163Z,101381.70
2019-04-01T08:46:55.082Z,101373.10
2019-04-01T08:49:57.032Z,101362.30
2019-04-01T08:52:59.115Z,101363.50
2019-04-01T08:56:02.146Z,101374.20
2019-04-01T08:59:04.200Z,101378.48
2019-04-01T09:02:17.041Z,101364.25
2019-04-01T09:05:10.121Z,101351.94
2019-04-01T09:08:12.085Z,101360.23
2019-04-01T09:11:15.593Z,101351.01
2019-04-01T09:14:17.784Z,101365.39
2019-04-01T09:17:19.879Z,101370.33
2019-04-01T09:20:21.857Z,101363.06
2019-04-01T09:23:24.036Z,101346.78
2019-04-01T09:26:25.955Z,101371.59
2019-04-01T09:29:28.042Z,101342.66
2019-04-01T09:32:30.002Z,101343.23
2019-04-01T09:35:31.991Z,101347.95
2019-04-01T09:38:34.091Z,101339.41
2019-04-01T09:41:36.124Z,101345.75
2019-04-01T09:44:38.075Z,101331.26
2019-04-01T09:47:40.031Z,101335.20
2019-04-01T09:50:41.984Z,101338.52
2019-04-01T09:53:44.104Z,101336.00
2019-04-01T09:56:46.089Z,101334.52
2019-04-01T09:59:48.077Z,101327.54
2019-04-01T10:02:50.029Z,101325.68
2019-04-01T10:05:51.996Z,101345.64
2019-04-01T10:08:53.993Z,101329.41
2019-04-01T10:11:55.947Z,101341.01
2019-04-01T10:14:57.957Z,101335.58
2019-04-01T10:17:59.981Z,101332.14
2019-04-01T10:21:01.900Z,101340.77
2019-04-01T10:24:03.988Z,101323.40
2019-04-01T10:27:07.595Z,101318.28
2019-04-01T10:30:11.320Z,101316.86
2019-04-01T10:33:13.378Z,101315.50
2019-04-01T10:36:15.437Z,101307.95
2019-04-01T10:39:17.396Z,101306.67
2019-04-01T10:42:19.380Z,101296.47
2019-04-01T10:45:21.426Z,101304.04
2019-04-01T10:48:23.365Z,101290.89
2019-04-01T10:51:25.504Z,101300.53
2019-04-01T10:54:27.532Z,101327.05
2019-04-01T10:57:29.565Z,101292.86
2019-04-01T11:00:31.622Z,101297.47
2019-04-01T11:03:34.794Z,101299.05
2019-04-01T11:06:37.916Z,101292.86
2019-04-01T11:09:39.881Z,101305.03
2019-04-01T11:12:41.821Z,101294.44
2019-04-01T11:15:43.828Z,101296.30
2019-04-01T11:18:45.784Z,101296.41
2019-04-01T11:21:47.713Z,101284.62
2019-04-01T11:24:49.872Z,101282.25
2019-04-01T11:27:59.033Z,101288.48
2019-04-01T11:31:01.067Z,101280.58
2019-04-01T11:34:03.256Z,101287.82
2019-04-01T11:37:05.325Z,101259.48
2019-04-01T11:40:11.262Z,101267.98
2019-04-01T11:43:12.478Z,101295.50
2019-04-01T11:46:14.512Z,101278.11
2019-04-01T11:49:16.569Z,101267.13
2019-04-01T11:52:18.507Z,101268.86
2019-04-01T11:55:20.667Z,101263.41
2019-04-01T11:58:22.580Z,101265.23
2019-04-01T12:01:24.583Z,101249.36
2019-04-01T12:04:26.598Z,101252.02
2019-04-01T12:07:28.560Z,101247.33
2019-04-01T12:10:30.560Z,101236.95
2019-04-01T12:13:32.557Z,101245.45
2019-04-01T12:16:34.519Z,101225.00
2019-04-01T12:19:36.576Z,101240.47
2019-04-01T12:22:38.558Z,101231.25
2019-04-01T12:25:40.787Z,101221.05
2019-04-01T12:28:43.623Z,101240.45
2019-04-01T12:31:46.050Z,101257.05
2019-04-01T12:34:48.076Z,101224.78
2019-04-01T12:37:50.083Z,101227.21
2019-04-01T12:40:52.051Z,101213.02
2019-04-01T12:43:54.075Z,101213.68
2019-04-01T12:46:56.035Z,101196.87
2019-04-01T12:49:58.084Z,101196.44
2019-04-01T12:53:00.068Z,101193.14
2019-04-01T12:56:02.103Z,101228.52
2019-04-01T12:59:04.035Z,101182.93
2019-04-01T13:02:06.042Z,101201.31
2019-04-01T13:05:09.267Z,101194.71
2019-04-01T13:08:11.450Z,101190.66
2019-04-01T13:11:13.476Z,101159.80
2019-04-01T13:14:15.522Z,101154.34
2019-04-01T13:17:17.444Z,101158.80
2019-04-01T13:20:19.409Z,101157.09
2019-04-01T13:23:21.412Z,101148.05
2019-04-01T13:26:26.327Z,101168.74
2019-04-01T13:29:28.884Z,101137.29
2019-04-01T13:32:30.891Z,101137.70
2019-04-01T13:35:32.873Z,101132.31
2019-04-01T13:38:34.883Z,101128.19
2019-04-01T13:41:42.515Z,101124.92
2019-04-01T13:44:40.765Z,101121.66
2019-04-01T13:47:42.760Z,101130.94
2019-04-01T13:50:44.767Z,101132.24
2019-04-01T13:53:46.680Z,101126.16
2019-04-01T13:56:48.739Z,101121.20
2019-04-01T13:59:52.166Z,101127.22
2019-04-01T14:02:54.198Z,101117.29
2019-04-01T14:05:56.197Z,101116.50
2019-04-01T14:09:00.449Z,101126.64
2019-04-01T14:12:02.053Z,101135.09
2019-04-01T14:15:06.693Z,101114.20
2019-04-01T14:18:08.629Z,101094.61
2019-04-01T14:21:16.621Z,101101.09
2019-04-01T14:24:15.242Z,101107.94
2019-04-01T14:27:18.402Z,101093.33
2019-04-01T14:30:21.006Z,101080.38
2019-04-01T14:33:22.918Z,101078.73
2019-04-01T14:36:24.878Z,101086.02
2019-04-01T14:39:26.907Z,101065.16
2019-04-01T14:42:28.907Z,101058.97
2019-04-01T14:45:30.925Z,101055.36
2019-04-01T14:48:32.899Z,101062.27
2019-04-01T14:51:34.990Z,101067.45
2019-04-01T14:54:37.314Z,101055.67
2019-04-01T14:57:39.447Z,101056.12
2019-04-01T15:00:41.390Z,101052.75
2019-04-01T15:03:43.404Z,101043.61
2019-04-01T15:06:45.550Z,101055.19
2019-04-01T15:09:47.641Z,101020.77
2019-04-01T15:13:04.084Z,101051.59
2019-04-01T15:15:53.490Z,101049.08
2019-04-01T15:18:55.418Z,101039.42
2019-04-01T15:21:57.524Z,101032.76
2019-04-01T15:24:59.524Z,101034.09
2019-04-01T15:28:02.461Z,101025.85
2019-04-01T15:31:05.040Z,101018.95
2019-04-01T15:34:09.283Z,101010.39
2019-04-01T15:37:11.770Z,101026.02
2019-04-01T15:40:13.824Z,101019.87
2019-04-01T15:43:15.764Z,101011.87
2019-04-01T15:46:19.027Z,101014.38
2019-04-01T15:49:21.002Z,101012.73
2019-04-01T15:52:23.002Z,101015.44
2019-04-01T15:55:24.944Z,101015.70
2019-04-01T15:58:27.037Z,101010.63
2019-04-01T16:01:30.107Z,101024.00
2019-04-01T16:04:32.398Z,101014.91
2019-04-01T16:07:34.339Z,101036.28
2019-04-01T16:10:36.289Z,101006.28
2019-04-01T16:13:38.191Z,101005.92
2019-04-01T16:16:40.116Z,101006.35
2019-04-01T16:19:43.242Z,101008.46
2019-04-01T16:22:46.504Z,101013.36
2019-04-01T16:25:48.790Z,101003.67
2019-04-01T16:28:50.937Z,100985.20
2019-04-01T16:31:55.400Z,100986.48
2019-04-01T16:34:57.221Z,101000.70
2019-04-01T16:37:59.573Z,101001.95
2019-04-01T16:41:04.012Z,100992.77
2019-04-01T16:44:05.986Z,101004.41
2019-04-01T16:47:08.106Z,100989.23
2019-04-01T16:50:10.394Z,100990.52
2019-04-01T16:53:23.218Z,100987.90
2019-04-01T16:56:27.080Z,100985.56
2019-04-01T16:59:29.148Z,100996.25
2019-04-01T17:02:32.876Z,101002.41
2019-04-01T17:05:34.993Z,100991.38
2019-04-01T17:08:36.902Z,100995.61
2019-04-01T17:11:42.837Z,100990.30
2019-04-01T17:14:45.894Z,100987.57
2019-04-01T17:17:48.424Z,100997.10
2019-04-01T17:20:50.446Z,101002.81
2019-04-01T17:23:52.436Z,100999.00
2019-04-01T17:27:06.858Z,101005.39
2019-04-01T17:30:10.874Z,101001.59
2019-04-01T17:33:14.117Z,101007.84
2019-04-01T17:36:16.904Z,101003.50
2019-04-01T17:39:18.862Z,100998.86
2019-04-01T17:42:21.160Z,101006.23
2019-04-01T17:45:26.686Z,101016.77
2019-04-01T17:48:33.136Z,101023.47
2019-04-01T17:51:35.192Z,101012.87
2019-04-01T17:54:39.906Z,101017.63
2019-04-01T17:57:41.013Z,101015.84
2019-04-01T18:00:48.168Z,101019.13
2019-04-01T18:03:50.192Z,101023.02
2019-04-01T18:06:52.168Z,101027.77
2019-04-01T18:09:54.570Z,101029.35
2019-04-01T18:12:57.111Z,101029.46
2019-04-01T18:15:59.438Z,101030.39
2019-04-01T18:19:01.351Z,101031.00
2019-04-01T18:22:04.016Z,101035.20
2019-04-01T18:25:08.090Z,101031.49
2019-04-01T18:28:10.120Z,101034.86
2019-04-01T18:31:12.246Z,101037.90
2019-04-01T18:34:14.314Z,101030.63
2019-04-01T18:37:16.723Z,101037.76
2019-04-01T18:40:31.979Z,101045.17
2019-04-01T18:43:23.368Z,101039.72
2019-04-01T18:46:25.536Z,101037.58
2019-04-01T18:49:29.348Z,101033.57
2019-04-01T18:52:31.311Z,101038.20
2019-04-01T18:55:33.491Z,101038.21
2019-04-01T18:58:36.127Z,101038.00
2019-04-01T19:01:39.550Z,101039.64
2019-04-01T19:04:44.785Z,101036.95
2019-04-01T19:07:46.747Z,101045.95
2019-04-01T19:11:01.470Z,101044.45
2019-04-01T19:13:52.602Z,101042.58
2019-04-01T19:16:58.878Z,101048.39
2019-04-01T19:20:03.041Z,101041.64
2019-04-01T19:23:04.997Z,101043.16
2019-04-01T19:26:09.984Z,101038.66
2019-04-01T19:29:11.246Z,101028.64
2019-04-01T19:32:14.832Z,101032.78
2019-04-01T19:35:17.401Z,101030.33
2019-04-01T19:38:25.228Z,101028.19
2019-04-01T19:41:29.113Z,101029.36
2019-04-01T19:44:31.132Z,101037.65
2019-04-01T19:47:33.189Z,101039.35
2019-04-01T19:50:36.744Z,101041.39
2019-04-01T19:53:39.207Z,101043.78
2019-04-01T19:56:41.444Z,101044.45
2019-04-01T19:59:47.497Z,101032.55
2019-04-01T20:02:52.807Z,101032.98
2019-04-01T20:05:54.843Z,101042.02
2019-04-01T20:08:59.222Z,101038.34
2019-04-01T20:12:01.370Z,101037.85
2019-04-01T20:15:11.950Z,101024.48
2019-04-01T20:18:16.555Z,101048.81
2019-04-01T20:21:18.592Z,101046.92
2019-04-01T20:24:20.643Z,101044.13
2019-04-01T20:27:25.094Z,101047.52
2019-04-01T20:30:26.999Z,101042.08
2019-04-01T20:33:31.706Z,101035.83
2019-04-01T20:36:33.461Z,101045.98
2019-04-01T20:39:35.395Z,101036.05
2019-04-01T20:42:37.381Z,101040.77
2019-04-01T20:45:39.311Z,101039.50
2019-04-01T20:48:41.273Z,101029.05
2019-04-01T20:51:43.277Z,101036.48
2019-04-01T20:54:45.630Z,101024.12
2019-04-01T20:57:47.566Z,101024.75
2019-04-01T21:00:49.534Z,101032.28
2019-04-01T21:03:51.572Z,101025.69
2019-04-01T21:06:53.548Z,101021.80
2019-04-01T21:09:55.530Z,101014.38
2019-04-01T21:12:57.493Z,101013.55
2019-04-01T21:15:59.658Z,101006.02
2019-04-01T21:19:01.757Z,101001.51
2019-04-01T21:22:05.066Z,101008.73
2019-04-01T21:25:07.634Z,100999.84
2019-04-01T21:28:09.629Z,101005.72
2019-04-01T21:31:12.726Z,100994.97
2019-04-01T21:34:16.031Z,101005.22
2019-04-01T21:37:18.026Z,101003.33
2019-04-01T21:40:19.943Z,100994.97
2019-04-01T21:43:21.902Z,101002.49
2019-04-01T21:46:23.826Z,100999.27
2019-04-01T21:49:25.720Z,101001.66
2019-04-01T21:52:27.704Z,100996.65
2019-04-01T21:55:30.714Z,100987.46
2019-04-01T21:58:32.757Z,100982.02
2019-04-01T22:01:34.671Z,100982.34
2019-04-01T22:04:36.752Z,100979.53
2019-04-01T22:07:38.738Z,100979.13
2019-04-01T22:10:40.786Z,100973.39
2019-04-01T22:13:42.749Z,100972.25
2019-04-01T22:16:45.119Z,100974.54
2019-04-01T22:19:47.979Z,100975.06
2019-04-01T22:22:49.904Z,100968.80
2019-04-01T22:25:51.869Z,100968.69
2019-04-01T22:28:53.834Z,100968.92
2019-04-01T22:31:55.749Z,100953.77
2019-04-01T22:34:57.890Z,100954.92
2019-04-01T22:38:03.280Z,100954.59
2019-04-01T22:41:04.397Z,100960.98
2019-04-01T22:44:06.341Z,100950.84
2019-04-01T22:47:08.222Z,100952.09
2019-04-01T22:50:10.726Z,100948.84
2019-04-01T22:53:12.833Z,100956.92
2019-04-01T22:56:14.787Z,100946.06
2019-04-01T22:59:16.707Z,100951.49
2019-04-01T23:02:18.631Z,100948.14
2019-04-01T23:05:20.675Z,100944.69
2019-04-01T23:08:22.639Z,100947.19
2019-04-01T23:11:25.119Z,100947.84
2019-04-01T23:14:27.303Z,100943.55
2019-04-01T23:17:29.220Z,100944.50
2019-04-01T23:20:31.189Z,100953.59
2019-04-01T23:23:34.067Z,100938.02
2019-04-01T23:26:35.984Z,100941.27
2019-04-01T23:29:37.892Z,100936.86
2019-04-01T23:32:41.826Z,100935.09
2019-04-01T23:35:43.821Z,100932.49
2019-04-01T23:38:45.755Z,100927.15
2019-04-01T23:41:47.644Z,100917.55
2019-04-01T23:44:52.106Z,100917.63
2019-04-01T23:47:54.303Z,100914.61
2019-04-01T23:50:56.284Z,100911.90
2019-04-01T23:53:58.241Z,100910.12
2019-04-01T23:57:00.231Z,100900.52
